Time,TemperatureF,DewpointF,PressureIn,WindDirection,WindDirectionDegrees,WindSpeedMPH,WindSpeedGustMPH,Humidity,HourlyPrecipIn,Conditions,Clouds,dailyrainin,SoftwareType,DateUTC
2013-06-10 00:00:00,62.9,53.0,29.74,South,180,8.0,14.0,70,0.00,,---,0.00,VWS V14.01,2013-06-10 07:00:00,
2013-06-10 00:15:00,62.6,53.5,29.73,South,180,6.0,15.0,72,0.00,,---,0.00,VWS V14.01,2013-06-10 07:15:00,
2013-06-10 00:30:00,62.5,53.4,29.71,South,180,7.0,12.0,72,0.00,,---,0.00,VWS V14.01,2013-06-10 07:30:00,
2013-06-10 00:45:00,62.5,53.7,29.71,SSW,202,6.0,12.0,73,0.00,,---,0.00,VWS V14.01,2013-06-10 07:45:00,
2013-06-10 01:00:00,62.6,53.8,29.70,SSW,202,0.0,4.0,73,0.00,,---,0.00,VWS V14.01,2013-06-10 08:00:00,
2013-06-10 01:15:00,62.7,54.7,29.71,ESE,112,2.0,12.0,75,0.00,,---,0.00,VWS V14.01,2013-06-10 08:15:00,
2013-06-10 01:30:00,62.0,54.0,29.72,ESE,112,7.0,14.0,75,0.00,,---,0.00,VWS V14.01,2013-06-10 08:30:00,
2013-06-10 01:45:00,60.4,53.2,29.73,SE,135,14.0,31.0,77,0.00,,---,0.00,VWS V14.01,2013-06-10 08:45:00,
2013-06-10 02:00:00,59.8,52.9,29.73,SSE,158,12.0,21.0,78,0.00,,---,0.00,VWS V14.01,2013-06-10 09:00:00,
2013-06-10 02:15:00,59.8,52.9,29.74,South,180,11.0,19.0,78,0.00,,---,0.00,VWS V14.01,2013-06-10 09:15:00,
2013-06-10 02:30:00,59.8,52.9,29.73,SSW,202,9.0,14.0,78,0.00,,---,0.00,VWS V14.01,2013-06-10 09:30:00,
2013-06-10 02:45:00,59.9,53.0,29.73,SSW,202,3.0,9.0,78,0.00,,---,0.00,VWS V14.01,2013-06-10 09:45:00,
2013-06-10 03:00:00,60.1,53.6,29.72,SSW,202,0.0,4.0,79,0.00,,---,0.00,VWS V14.01,2013-06-10 10:00:00,
2013-06-10 03:15:00,60.3,53.8,29.71,SSW,202,0.0,4.0,79,0.00,,---,0.00,VWS V14.01,2013-06-10 10:15:00,
2013-06-10 03:30:00,60.6,54.4,29.70,West,270,1.0,6.0,80,0.00,,---,0.00,VWS V14.01,2013-06-10 10:30:00,
2013-06-10 03:45:00,61.1,54.9,29.72,West,270,1.0,5.0,80,0.00,,---,0.00,VWS V14.01,2013-06-10 10:45:00,
2013-06-10 04:00:00,60.5,54.0,29.72,ESE,112,1.0,6.0,79,0.00,,---,0.00,VWS V14.01,2013-06-10 11:00:00,
2013-06-10 04:15:00,59.9,54.1,29.72,ESE,112,1.0,5.0,81,0.00,,---,0.00,VWS V14.01,2013-06-10 11:15:00,
2013-06-10 04:30:00,59.5,54.0,29.73,ESE,112,1.0,5.0,82,0.00,,---,0.00,VWS V14.01,2013-06-10 11:30:00,
2013-06-10 04:45:00,59.1,52.9,29.72,SSE,158,6.0,12.0,80,0.00,,---,0.00,VWS V14.01,2013-06-10 11:45:00,
2013-06-10 05:00:00,59.1,52.9,29.73,South,180,8.0,13.0,80,0.00,,---,0.00,VWS V14.01,2013-06-10 12:00:00,
2013-06-10 05:15:00,59.1,52.9,29.73,South,180,10.0,14.0,80,0.00,,---,0.00,VWS V14.01,2013-06-10 12:15:00,
2013-06-10 05:30:00,59.3,53.5,29.73,SSW,202,7.0,11.0,81,0.00,,---,0.00,VWS V14.01,2013-06-10 12:30:00,
2013-06-10 05:45:00,59.5,53.7,29.74,SSW,202,3.0,8.0,81,0.00,,---,0.00,VWS V14.01,2013-06-10 12:45:00,
2013-06-10 06:00:00,59.9,54.1,29.74,West,270,4.0,9.0,81,0.00,,---,0.00,VWS V14.01,2013-06-10 13:00:00,
2013-06-10 06:15:00,60.7,54.5,29.75,West,270,2.0,8.0,80,0.00,,---,0.00,VWS V14.01,2013-06-10 13:15:00,
2013-06-10 06:30:00,61.0,54.1,29.75,WSW,248,1.0,5.0,78,0.00,,---,0.00,VWS V14.01,2013-06-10 13:30:00,
2013-06-10 06:45:00,61.3,54.7,29.75,WNW,292,1.0,5.0,79,0.00,,---,0.00,VWS V14.01,2013-06-10 13:45:00,
2013-06-10 07:00:00,61.4,54.8,29.76,SW,225,2.0,6.0,79,0.00,,---,0.00,VWS V14.01,2013-06-10 14:00:00,
2013-06-10 07:15:00,60.7,54.5,29.75,West,270,2.0,8.0,80,0.00,,---,0.00,VWS V14.01,2013-06-10 14:15:00,
2013-06-10 07:24:00,61.7,54.1,29.77,SSW,205,3.0,3.0,76,0.00,,---,0.00,VWS V14.01,2013-06-10 14:24:00,
2013-06-10 07:29:00,61.8,54.2,29.77,South,186,8.0,8.0,76,0.00,,---,0.00,VWS V14.01,2013-06-10 14:29:00,
2013-06-10 07:30:00,61.8,54.2,29.77,South,175,7.0,8.0,76,0.00,,---,0.00,VWS V14.01,2013-06-10 14:30:00,
2013-06-10 07:34:00,61.8,54.2,29.77,South,178,4.0,8.0,76,0.00,,---,0.00,VWS V14.01,2013-06-10 14:34:00,
2013-06-10 07:39:00,61.9,54.6,29.77,South,188,5.0,8.0,77,0.00,,---,0.00,VWS V14.01,2013-06-10 14:39:00,
2013-06-10 07:44:00,62.0,54.4,29.77,South,182,4.0,8.0,76,0.00,,---,0.00,VWS V14.01,2013-06-10 14:44:00,
2013-06-10 07:45:00,62.0,54.7,29.77,South,180,6.0,8.0,77,0.00,,---,0.00,VWS V14.01,2013-06-10 14:45:00,
2013-06-10 07:49:00,62.0,54.4,29.77,South,187,8.0,8.0,76,0.00,,---,0.00,VWS V14.01,2013-06-10 14:49:00,
2013-06-10 07:54:00,62.1,54.5,29.78,South,182,7.0,9.0,76,0.00,,---,0.00,VWS V14.01,2013-06-10 14:54:00,
2013-06-10 07:59:00,62.2,54.5,29.78,South,179,5.0,9.0,76,0.00,,---,0.00,VWS V14.01,2013-06-10 14:59:00,
2013-06-10 08:00:00,62.2,54.5,29.77,South,180,7.0,9.0,76,0.00,,---,0.00,VWS V14.01,2013-06-10 15:00:00,
2013-06-10 08:04:00,62.3,54.7,29.78,SSW,194,9.0,10.0,76,0.00,,---,0.00,VWS V14.01,2013-06-10 15:04:00,
2013-06-10 08:09:00,62.3,54.7,29.78,South,186,8.0,10.0,76,0.00,,---,0.00,VWS V14.01,2013-06-10 15:09:00,
2013-06-10 08:14:00,62.3,54.7,29.78,South,185,9.0,11.0,76,0.00,,---,0.00,VWS V14.01,2013-06-10 15:14:00,
2013-06-10 08:15:00,62.3,54.7,29.78,SSW,192,5.0,11.0,76,0.00,,---,0.00,VWS V14.01,2013-06-10 15:15:00,
2013-06-10 08:19:00,62.4,54.4,29.79,South,176,4.0,12.0,75,0.00,,---,0.00,VWS V14.01,2013-06-10 15:19:00,
2013-06-10 08:24:00,62.4,54.4,29.79,South,184,8.0,12.0,75,0.00,,---,0.00,VWS V14.01,2013-06-10 15:24:00,
2013-06-10 08:29:00,62.7,54.7,29.79,SSW,199,9.0,12.0,75,0.00,,---,0.00,VWS V14.01,2013-06-10 15:29:00,
2013-06-10 08:30:00,62.8,54.4,29.79,SSW,195,6.0,12.0,74,0.00,,---,0.00,VWS V14.01,2013-06-10 15:30:00,
2013-06-10 08:34:00,63.0,54.6,29.79,SSW,193,8.0,10.0,74,0.00,,---,0.00,VWS V14.01,2013-06-10 15:34:00,
2013-06-10 08:39:00,63.3,54.5,29.79,SSW,195,6.0,10.0,73,0.00,,---,0.00,VWS V14.01,2013-06-10 15:39:00,
2013-06-10 08:44:00,63.4,55.0,29.79,South,180,10.0,13.0,74,0.00,,---,0.00,VWS V14.01,2013-06-10 15:44:00,
2013-06-10 08:45:00,63.4,54.6,29.79,South,184,8.0,13.0,73,0.00,,---,0.00,VWS V14.01,2013-06-10 15:45:00,
2013-06-10 08:49:00,63.5,54.7,29.80,South,180,6.0,11.0,73,0.00,,---,0.00,VWS V14.01,2013-06-10 15:49:00,
2013-06-10 08:54:00,63.7,54.5,29.80,South,178,8.0,11.0,72,0.00,,---,0.00,VWS V14.01,2013-06-10 15:54:00,
2013-06-10 08:59:00,64.1,55.3,29.80,South,182,4.0,11.0,73,0.00,,---,0.00,VWS V14.01,2013-06-10 15:59:00,
2013-06-10 09:00:00,64.2,55.0,29.80,South,184,4.0,11.0,72,0.00,,---,0.00,VWS V14.01,2013-06-10 16:00:00,
2013-06-10 09:04:00,64.8,55.2,29.80,South,180,0.0,7.0,71,0.00,,---,0.00,VWS V14.01,2013-06-10 16:04:00,
2013-06-10 09:09:00,65.5,55.1,29.80,South,178,0.0,8.0,69,0.00,,---,0.00,VWS V14.01,2013-06-10 16:09:00,
2013-06-10 09:14:00,66.3,55.4,29.80,South,179,4.0,8.0,68,0.00,,---,0.00,VWS V14.01,2013-06-10 16:14:00,
2013-06-10 09:15:00,66.5,55.6,29.80,South,179,1.0,8.0,68,0.00,,---,0.00,VWS V14.01,2013-06-10 16:15:00,
2013-06-10 09:19:00,67.0,56.1,29.80,SSW,192,0.0,6.0,68,0.00,,---,0.00,VWS V14.01,2013-06-10 16:19:00,
2013-06-10 09:24:00,67.6,56.7,29.80,South,191,3.0,6.0,68,0.00,,---,0.00,VWS V14.01,2013-06-10 16:24:00,
2013-06-10 09:29:00,67.7,56.4,29.80,South,181,1.0,6.0,67,0.00,,---,0.00,VWS V14.01,2013-06-10 16:29:00,
2013-06-10 09:30:00,67.6,56.7,29.80,South,181,3.0,6.0,68,0.00,,---,0.00,VWS V14.01,2013-06-10 16:30:00,
2013-06-10 09:34:00,67.6,56.7,29.80,South,176,0.0,7.0,68,0.00,,---,0.00,VWS V14.01,2013-06-10 16:34:00,
2013-06-10 09:39:00,68.0,56.2,29.80,South,176,2.0,7.0,66,0.00,,---,0.00,VWS V14.01,2013-06-10 16:39:00,
2013-06-10 09:44:00,68.6,56.8,29.80,SSW,196,9.0,9.0,66,0.00,,---,0.00,VWS V14.01,2013-06-10 16:44:00,
2013-06-10 09:45:00,68.9,57.1,29.80,SSW,194,8.0,9.0,66,0.00,,---,0.00,VWS V14.01,2013-06-10 16:45:00,
2013-06-10 09:49:00,69.5,56.4,29.81,SSW,197,4.0,10.0,63,0.00,,---,0.00,VWS V14.01,2013-06-10 16:49:00,
2013-06-10 09:54:00,70.4,56.8,29.81,SSW,213,7.0,10.0,62,0.00,,---,0.00,VWS V14.01,2013-06-10 16:54:00,
2013-06-10 09:59:00,71.1,56.5,29.81,South,186,8.0,12.0,60,0.00,,---,0.00,VWS V14.01,2013-06-10 16:59:00,
2013-06-10 10:00:00,71.3,57.6,29.81,South,173,5.0,12.0,62,0.00,,---,0.00,VWS V14.01,2013-06-10 17:00:00,
2013-06-10 10:04:00,71.7,56.6,29.81,SSW,205,9.0,14.0,59,0.00,,---,0.00,VWS V14.01,2013-06-10 17:04:00,
2013-06-10 10:09:00,72.1,57.0,29.81,SSW,205,7.0,14.0,59,0.00,,---,0.00,VWS V14.01,2013-06-10 17:09:00,
2013-06-10 10:14:00,72.6,57.9,29.81,SSW,201,3.0,14.0,60,0.00,,---,0.00,VWS V14.01,2013-06-10 17:14:00,
2013-06-10 10:15:00,72.8,56.7,29.81,SSW,206,7.0,14.0,57,0.00,,---,0.00,VWS V14.01,2013-06-10 17:15:00,
2013-06-10 10:19:00,73.2,57.1,29.81,SSW,209,9.0,11.0,57,0.00,,---,0.00,VWS V14.01,2013-06-10 17:19:00,
2013-06-10 10:24:00,73.4,56.8,29.81,SSW,196,5.0,11.0,56,0.00,,---,0.00,VWS V14.01,2013-06-10 17:24:00,
2013-06-10 10:29:00,73.1,56.0,29.82,SSE,163,5.0,11.0,55,0.00,,---,0.00,VWS V14.01,2013-06-10 17:29:00,
2013-06-10 10:30:00,73.0,56.4,29.82,SSE,159,6.0,12.0,56,0.00,,---,0.00,VWS V14.01,2013-06-10 17:30:00,
2013-06-10 10:34:00,72.5,55.9,29.82,SSE,164,6.0,10.0,56,0.00,,---,0.00,VWS V14.01,2013-06-10 17:34:00,
2013-06-10 10:39:00,72.1,56.5,29.83,SSE,165,0.0,10.0,58,0.00,,---,0.00,VWS V14.01,2013-06-10 17:39:00,
2013-06-10 10:44:00,72.1,56.0,29.83,SSE,147,11.0,11.0,57,0.00,,---,0.00,VWS V14.01,2013-06-10 17:44:00,
2013-06-10 10:45:00,72.1,56.0,29.83,SSE,154,0.0,11.0,57,0.00,,---,0.00,VWS V14.01,2013-06-10 17:45:00,
2013-06-10 10:49:00,72.1,55.6,29.83,SSE,147,1.0,10.0,56,0.00,,---,0.00,VWS V14.01,2013-06-10 17:49:00,
2013-06-10 10:54:00,72.2,55.7,29.83,SSE,155,2.0,10.0,56,0.00,,---,0.00,VWS V14.01,2013-06-10 17:54:00,
2013-06-10 10:59:00,72.5,56.4,29.83,SSE,152,2.0,10.0,57,0.00,,---,0.00,VWS V14.01,2013-06-10 17:59:00,
2013-06-10 11:00:00,72.6,56.5,29.83,South,188,4.0,12.0,57,0.00,,---,0.00,VWS V14.01,2013-06-10 18:00:00,
2013-06-10 11:04:00,72.6,56.5,29.83,SSW,193,1.0,10.0,57,0.00,,---,0.00,VWS V14.01,2013-06-10 18:04:00,
2013-06-10 11:09:00,72.6,56.5,29.83,SSW,193,3.0,10.0,57,0.00,,---,0.00,VWS V14.01,2013-06-10 18:09:00,
2013-06-10 11:14:00,72.6,57.0,29.83,SSE,158,5.0,10.0,58,0.00,,---,0.00,VWS V14.01,2013-06-10 18:14:00,
2013-06-10 11:15:00,72.6,56.5,29.83,SSE,159,5.0,10.0,57,0.00,,---,0.00,VWS V14.01,2013-06-10 18:15:00,
2013-06-10 11:19:00,72.5,56.9,29.82,South,188,1.0,7.0,58,0.00,,---,0.00,VWS V14.01,2013-06-10 18:19:00,
2013-06-10 11:24:00,72.4,58.2,29.83,SW,227,5.0,16.0,61,0.00,,---,0.00,VWS V14.01,2013-06-10 18:24:00,
2013-06-10 11:29:00,72.0,57.4,29.83,SW,232,3.0,16.0,60,0.00,,---,0.00,VWS V14.01,2013-06-10 18:29:00,
2013-06-10 11:30:00,71.9,57.7,29.83,WSW,256,1.0,16.0,61,0.00,,---,0.00,VWS V14.01,2013-06-10 18:30:00,
2013-06-10 11:34:00,71.7,57.5,29.83,West,272,11.0,12.0,61,0.00,,---,0.00,VWS V14.01,2013-06-10 18:34:00,
2013-06-10 11:39:00,71.1,57.4,29.83,West,263,5.0,12.0,62,0.00,,---,0.00,VWS V14.01,2013-06-10 18:39:00,
2013-06-10 11:44:00,70.7,57.1,29.83,West,263,1.0,12.0,62,0.00,,---,0.00,VWS V14.01,2013-06-10 18:44:00,
2013-06-10 11:45:00,70.6,57.4,29.83,West,261,2.0,12.0,63,0.00,,---,0.00,VWS V14.01,2013-06-10 18:45:00,
2013-06-10 11:49:00,70.5,57.3,29.83,WSW,247,0.0,6.0,63,0.00,,---,0.00,VWS V14.01,2013-06-10 18:49:00,
2013-06-10 11:54:00,70.3,56.7,29.83,SSE,168,7.0,9.0,62,0.00,,---,0.00,VWS V14.01,2013-06-10 18:54:00,
2013-06-10 11:59:00,70.1,56.9,29.83,SSW,198,6.0,14.0,63,0.00,,---,0.00,VWS V14.01,2013-06-10 18:59:00,
2013-06-10 12:00:00,70.1,56.9,29.83,WSW,239,3.0,14.0,63,0.00,,---,0.00,VWS V14.01,2013-06-10 19:00:00,
2013-06-10 12:04:00,70.2,56.6,29.83,WSW,248,5.0,12.0,62,0.00,,---,0.00,VWS V14.01,2013-06-10 19:04:00,
2013-06-10 12:09:00,70.4,57.2,29.84,SSW,196,7.0,12.0,63,0.00,,---,0.00,VWS V14.01,2013-06-10 19:09:00,
2013-06-10 12:14:00,70.7,57.1,29.84,SSW,203,5.0,14.0,62,0.00,,---,0.00,VWS V14.01,2013-06-10 19:14:00,
2013-06-10 12:15:00,70.8,57.2,29.84,SSW,211,8.0,14.0,62,0.00,,---,0.00,VWS V14.01,2013-06-10 19:15:00,
2013-06-10 12:19:00,71.0,57.8,29.84,WSW,248,10.0,11.0,63,0.00,,---,0.00,VWS V14.01,2013-06-10 19:19:00,
2013-06-10 12:24:00,71.4,57.3,29.85,SW,216,9.0,13.0,61,0.00,,---,0.00,VWS V14.01,2013-06-10 19:24:00,
2013-06-10 12:29:00,71.7,57.1,29.85,SSW,197,9.0,13.0,60,0.00,,---,0.00,VWS V14.01,2013-06-10 19:29:00,
2013-06-10 12:30:00,71.9,57.3,29.85,SSW,205,12.0,14.0,60,0.00,,---,0.00,VWS V14.01,2013-06-10 19:30:00,
2013-06-10 12:34:00,72.4,57.8,29.85,SSW,206,6.0,14.0,60,0.00,,---,0.00,VWS V14.01,2013-06-10 19:34:00,
2013-06-10 12:39:00,72.6,57.5,29.85,SSW,201,6.0,15.0,59,0.00,,---,0.00,VWS V14.01,2013-06-10 19:39:00,
2013-06-10 12:44:00,72.4,57.3,29.85,SSW,207,10.0,15.0,59,0.00,,---,0.00,VWS V14.01,2013-06-10 19:44:00,
2013-06-10 12:45:00,72.4,56.8,29.85,South,184,10.0,15.0,58,0.00,,---,0.00,VWS V14.01,2013-06-10 19:45:00,
2013-06-10 12:49:00,72.4,57.8,29.84,South,190,3.0,10.0,60,0.00,,---,0.00,VWS V14.01,2013-06-10 19:49:00,
2013-06-10 12:54:00,72.6,56.5,29.84,SSW,195,14.0,15.0,57,0.00,,---,0.00,VWS V14.01,2013-06-10 19:54:00,
2013-06-10 12:59:00,72.4,56.3,29.84,SSW,192,14.0,19.0,57,0.00,,---,0.00,VWS V14.01,2013-06-10 19:59:00,
2013-06-10 13:00:00,72.2,56.6,29.84,SSW,202,9.0,19.0,58,0.00,,---,0.00,VWS V14.01,2013-06-10 20:00:00,
2013-06-10 13:04:00,71.7,56.6,29.84,South,171,8.0,17.0,59,0.00,,---,0.00,VWS V14.01,2013-06-10 20:04:00,
2013-06-10 13:09:00,71.4,56.8,29.84,South,182,12.0,19.0,60,0.00,,---,0.00,VWS V14.01,2013-06-10 20:09:00,
2013-06-10 13:14:00,71.1,57.0,29.84,SSW,200,6.0,19.0,61,0.00,,---,0.00,VWS V14.01,2013-06-10 20:14:00,
2013-06-10 13:15:00,70.8,57.2,29.84,SSW,211,8.0,14.0,62,0.00,,---,0.00,VWS V14.01,2013-06-10 20:15:00,
2013-06-10 13:19:00,71.0,57.3,29.84,SW,226,8.0,10.0,62,0.00,,---,0.00,VWS V14.01,2013-06-10 20:19:00,
2013-06-10 13:24:00,71.1,56.5,29.84,SW,215,3.0,11.0,60,0.00,,---,0.00,VWS V14.01,2013-06-10 20:24:00,
2013-06-10 13:29:00,71.2,56.6,29.84,SSW,210,7.0,14.0,60,0.00,,---,0.00,VWS V14.01,2013-06-10 20:29:00,
2013-06-10 13:30:00,71.2,56.6,29.85,SSW,201,3.0,14.0,60,0.00,,---,0.00,VWS V14.01,2013-06-10 20:30:00,
2013-06-10 13:34:00,71.2,57.5,29.84,SSW,196,11.0,15.0,62,0.00,,---,0.00,VWS V14.01,2013-06-10 20:34:00,
2013-06-10 13:39:00,71.5,57.8,29.85,SW,231,6.0,15.0,62,0.00,,---,0.00,VWS V14.01,2013-06-10 20:39:00,
2013-06-10 13:44:00,72.0,56.9,29.85,WSW,252,10.0,15.0,59,0.00,,---,0.00,VWS V14.01,2013-06-10 20:44:00,
2013-06-10 13:45:00,72.0,56.9,29.85,WSW,252,10.0,15.0,59,0.00,,---,0.00,VWS V14.01,2013-06-10 20:45:00,
2013-06-10 13:49:00,72.1,57.0,29.85,SSW,206,12.0,13.0,59,0.00,,---,0.00,VWS V14.01,2013-06-10 20:49:00,
2013-06-10 13:54:00,71.9,56.8,29.85,SSW,203,7.0,13.0,59,0.00,,---,0.00,VWS V14.01,2013-06-10 20:54:00,
2013-06-10 13:59:00,71.9,56.8,29.85,SW,229,4.0,13.0,59,0.00,,---,0.00,VWS V14.01,2013-06-10 20:59:00,
2013-06-10 14:00:00,71.9,56.8,29.85,SSW,203,5.0,13.0,59,0.00,,---,0.00,VWS V14.01,2013-06-10 21:00:00,
2013-06-10 14:04:00,71.9,56.8,29.85,WSW,249,4.0,8.0,59,0.00,,---,0.00,VWS V14.01,2013-06-10 21:04:00,
2013-06-10 14:09:00,72.1,56.5,29.85,SSW,196,8.0,11.0,58,0.00,,---,0.00,VWS V14.01,2013-06-10 21:09:00,
2013-06-10 14:14:00,72.3,56.7,29.86,SW,217,8.0,15.0,58,0.00,,---,0.00,VWS V14.01,2013-06-10 21:14:00,
2013-06-10 14:15:00,72.3,56.7,29.85,SSW,212,7.0,15.0,58,0.00,,---,0.00,VWS V14.01,2013-06-10 21:15:00,
2013-06-10 14:19:00,72.5,56.9,29.85,SSW,193,4.0,7.0,58,0.00,,---,0.00,VWS V14.01,2013-06-10 21:19:00,
2013-06-10 14:24:00,72.6,56.5,29.85,SSW,198,8.0,14.0,57,0.00,,---,0.00,VWS V14.01,2013-06-10 21:24:00,
2013-06-10 14:29:00,72.4,56.3,29.85,SSW,203,15.0,15.0,57,0.00,,---,0.00,VWS V14.01,2013-06-10 21:29:00,
2013-06-10 14:30:00,72.4,56.3,29.85,SSE,168,9.0,15.0,57,0.00,,---,0.00,VWS V14.01,2013-06-10 21:30:00,
2013-06-10 14:34:00,72.2,56.6,29.86,SSW,202,11.0,17.0,58,0.00,,---,0.00,VWS V14.01,2013-06-10 21:34:00,
2013-06-10 14:39:00,71.8,55.8,29.85,SSE,167,9.0,18.0,57,0.00,,---,0.00,VWS V14.01,2013-06-10 21:39:00,
2013-06-10 14:44:00,71.9,56.8,29.85,SSW,195,6.0,18.0,59,0.00,,---,0.00,VWS V14.01,2013-06-10 21:44:00,
2013-06-10 14:45:00,72.0,56.4,29.85,SW,215,9.0,18.0,58,0.00,,---,0.00,VWS V14.01,2013-06-10 21:45:00,
2013-06-10 14:49:00,72.1,56.5,29.85,SW,217,8.0,10.0,58,0.00,,---,0.00,VWS V14.01,2013-06-10 21:49:00,
2013-06-10 14:54:00,72.2,56.6,29.86,SSW,211,11.0,14.0,58,0.00,,---,0.00,VWS V14.01,2013-06-10 21:54:00,
2013-06-10 14:59:00,72.5,56.4,29.86,SSW,193,8.0,14.0,57,0.00,,---,0.00,VWS V14.01,2013-06-10 21:59:00,
2013-06-10 15:00:00,72.5,55.9,29.86,South,175,9.0,14.0,56,0.00,,---,0.00,VWS V14.01,2013-06-10 22:00:00,
2013-06-10 15:04:00,72.4,56.3,29.86,SSW,211,10.0,14.0,57,0.00,,---,0.00,VWS V14.01,2013-06-10 22:04:00,
2013-06-10 15:09:00,72.2,56.1,29.86,SSW,207,9.0,15.0,57,0.00,,---,0.00,VWS V14.01,2013-06-10 22:09:00,
2013-06-10 15:14:00,71.9,55.9,29.86,SW,229,2.0,15.0,57,0.00,,---,0.00,VWS V14.01,2013-06-10 22:14:00,
2013-06-10 15:15:00,71.9,56.3,29.86,SSW,206,8.0,15.0,58,0.00,,---,0.00,VWS V14.01,2013-06-10 22:15:00,
2013-06-10 15:19:00,71.8,56.2,29.87,SSW,200,5.0,13.0,58,0.00,,---,0.00,VWS V14.01,2013-06-10 22:19:00,
2013-06-10 15:24:00,71.7,56.2,29.87,SSW,203,9.0,15.0,58,0.00,,---,0.00,VWS V14.01,2013-06-10 22:24:00,
2013-06-10 15:29:00,71.3,55.8,29.86,SSW,194,10.0,16.0,58,0.00,,---,0.00,VWS V14.01,2013-06-10 22:29:00,
2013-06-10 15:30:00,71.1,55.6,29.86,SSW,201,6.0,16.0,58,0.00,,---,0.00,VWS V14.01,2013-06-10 22:30:00,
2013-06-10 15:34:00,70.9,56.3,29.87,South,187,7.0,15.0,60,0.00,,---,0.00,VWS V14.01,2013-06-10 22:34:00,
2013-06-10 15:39:00,70.8,56.2,29.87,SSW,207,8.0,17.0,60,0.00,,---,0.00,VWS V14.01,2013-06-10 22:39:00,
2013-06-10 15:44:00,70.9,57.2,29.87,SSW,196,15.0,19.0,62,0.00,,---,0.00,VWS V14.01,2013-06-10 22:44:00,
2013-06-10 15:45:00,71.1,57.0,29.87,SW,216,7.0,19.0,61,0.00,,---,0.00,VWS V14.01,2013-06-10 22:45:00,
2013-06-10 15:49:00,71.3,56.7,29.87,SSW,206,7.0,11.0,60,0.00,,---,0.00,VWS V14.01,2013-06-10 22:49:00,
2013-06-10 15:54:00,71.8,56.7,29.87,SSW,198,8.0,14.0,59,0.00,,---,0.00,VWS V14.01,2013-06-10 22:54:00,
2013-06-10 15:59:00,72.3,57.2,29.87,SSW,207,11.0,14.0,59,0.00,,---,0.00,VWS V14.01,2013-06-10 22:59:00,
2013-06-10 16:00:00,72.5,57.4,29.87,West,275,13.0,14.0,59,0.00,,---,0.00,VWS V14.01,2013-06-10 23:00:00,
2013-06-10 16:04:00,72.8,57.2,29.87,WSW,245,6.0,15.0,58,0.00,,---,0.00,VWS V14.01,2013-06-10 23:04:00,
2013-06-10 16:09:00,73.3,56.7,29.87,SSW,198,7.0,15.0,56,0.00,,---,0.00,VWS V14.01,2013-06-10 23:09:00,
2013-06-10 16:14:00,73.7,57.0,29.87,South,191,7.0,15.0,56,0.00,,---,0.00,VWS V14.01,2013-06-10 23:14:00,
2013-06-10 16:15:00,73.8,57.1,29.87,SSW,202,7.0,15.0,56,0.00,,---,0.00,VWS V14.01,2013-06-10 23:15:00,
2013-06-10 16:19:00,73.9,56.7,29.87,West,274,6.0,12.0,55,0.00,,---,0.00,VWS V14.01,2013-06-10 23:19:00,
2013-06-10 16:24:00,73.8,57.1,29.87,SW,225,3.0,13.0,56,0.00,,---,0.00,VWS V14.01,2013-06-10 23:24:00,
2013-06-10 16:29:00,73.6,56.5,29.87,SSW,198,11.0,13.0,55,0.00,,---,0.00,VWS V14.01,2013-06-10 23:29:00,
2013-06-10 16:30:00,73.5,56.9,29.87,SSW,195,3.0,13.0,56,0.00,,---,0.00,VWS V14.01,2013-06-10 23:30:00,
2013-06-10 16:34:00,73.3,56.7,29.87,South,191,3.0,10.0,56,0.00,,---,0.00,VWS V14.01,2013-06-10 23:34:00,
2013-06-10 16:39:00,73.0,56.4,29.87,SSW,192,16.0,18.0,56,0.00,,---,0.00,VWS V14.01,2013-06-10 23:39:00,
2013-06-10 16:44:00,72.8,56.7,29.87,SSW,205,11.0,18.0,57,0.00,,---,0.00,VWS V14.01,2013-06-10 23:44:00,
2013-06-10 16:45:00,72.8,56.7,29.87,SSW,199,15.0,18.0,57,0.00,,---,0.00,VWS V14.01,2013-06-10 23:45:00,
2013-06-10 16:49:00,72.7,55.6,29.87,SSW,209,11.0,15.0,55,0.00,,---,0.00,VWS V14.01,2013-06-10 23:49:00,
2013-06-10 16:54:00,72.6,56.5,29.87,SSW,194,11.0,15.0,57,0.00,,---,0.00,VWS V14.01,2013-06-10 23:54:00,
2013-06-10 16:59:00,72.7,56.6,29.87,WSW,254,10.0,15.0,57,0.00,,---,0.00,VWS V14.01,2013-06-10 23:59:00,
2013-06-10 17:00:00,72.8,56.7,29.87,SSW,211,6.0,15.0,57,0.00,,---,0.00,VWS V14.01,2013-06-11 00:00:00,
2013-06-10 17:04:00,72.8,56.2,29.87,South,191,4.0,10.0,56,0.00,,---,0.00,VWS V14.01,2013-06-11 00:04:00,
2013-06-10 17:09:00,72.8,56.2,29.87,WSW,240,8.0,11.0,56,0.00,,---,0.00,VWS V14.01,2013-06-11 00:09:00,
2013-06-10 17:14:00,72.7,55.6,29.87,WSW,257,6.0,11.0,55,0.00,,---,0.00,VWS V14.01,2013-06-11 00:14:00,
2013-06-10 17:15:00,72.7,55.6,29.87,SSW,210,5.0,11.0,55,0.00,,---,0.00,VWS V14.01,2013-06-11 00:15:00,
2013-06-10 17:19:00,72.6,55.5,29.87,SW,235,14.0,14.0,55,0.00,,---,0.00,VWS V14.01,2013-06-11 00:19:00,
2013-06-10 17:24:00,72.5,55.4,29.87,SW,232,6.0,14.0,55,0.00,,---,0.00,VWS V14.01,2013-06-11 00:24:00,
2013-06-10 17:29:00,72.4,55.8,29.87,SW,230,6.0,14.0,56,0.00,,---,0.00,VWS V14.01,2013-06-11 00:29:00,
2013-06-10 17:30:00,72.4,55.8,29.87,SW,228,1.0,14.0,56,0.00,,---,0.00,VWS V14.01,2013-06-11 00:30:00,
2013-06-10 17:34:00,72.4,55.8,29.87,SSW,204,2.0,10.0,56,0.00,,---,0.00,VWS V14.01,2013-06-11 00:34:00,
2013-06-10 17:39:00,72.4,55.3,29.87,WSW,240,4.0,10.0,55,0.00,,---,0.00,VWS V14.01,2013-06-11 00:39:00,
2013-06-10 17:44:00,72.4,55.8,29.86,SW,223,5.0,13.0,56,0.00,,---,0.00,VWS V14.01,2013-06-11 00:44:00,
2013-06-10 17:45:00,72.4,55.8,29.87,SSW,211,2.0,13.0,56,0.00,,---,0.00,VWS V14.01,2013-06-11 00:45:00,
2013-06-10 17:49:00,72.4,55.3,29.86,SW,227,2.0,12.0,55,0.00,,---,0.00,VWS V14.01,2013-06-11 00:49:00,
2013-06-10 17:54:00,72.5,55.4,29.87,SW,224,4.0,12.0,55,0.00,,---,0.00,VWS V14.01,2013-06-11 00:54:00,
2013-06-10 17:59:00,72.4,54.8,29.86,SW,227,10.0,17.0,54,0.00,,---,0.00,VWS V14.01,2013-06-11 00:59:00,
2013-06-10 18:00:00,72.2,55.2,29.86,WSW,238,11.0,17.0,55,0.00,,---,0.00,VWS V14.01,2013-06-11 01:00:00,
2013-06-10 18:04:00,71.9,54.9,29.86,SSW,207,7.0,13.0,55,0.00,,---,0.00,VWS V14.01,2013-06-11 01:04:00,
2013-06-10 18:09:00,71.5,54.5,29.86,SW,214,2.0,13.0,55,0.00,,---,0.00,VWS V14.01,2013-06-11 01:09:00,
2013-06-10 18:14:00,71.1,54.6,29.86,WSW,249,8.0,14.0,56,0.00,,---,0.00,VWS V14.01,2013-06-11 01:14:00,
2013-06-10 18:15:00,71.0,54.5,29.86,WSW,242,1.0,14.0,56,0.00,,---,0.00,VWS V14.01,2013-06-11 01:15:00,
2013-06-10 18:19:00,70.8,54.8,29.86,WSW,255,8.0,8.0,57,0.00,,---,0.00,VWS V14.01,2013-06-11 01:19:00,
2013-06-10 18:24:00,70.4,54.5,29.86,SSW,211,7.0,10.0,57,0.00,,---,0.00,VWS V14.01,2013-06-11 01:24:00,
2013-06-10 18:29:00,70.2,54.8,29.86,WSW,238,4.0,10.0,58,0.00,,---,0.00,VWS V14.01,2013-06-11 01:29:00,
2013-06-10 18:30:00,70.2,54.8,29.86,WSW,256,6.0,10.0,58,0.00,,---,0.00,VWS V14.01,2013-06-11 01:30:00,
2013-06-10 18:34:00,70.1,54.7,29.86,SW,229,0.0,7.0,58,0.00,,---,0.00,VWS V14.01,2013-06-11 01:34:00,
2013-06-10 18:39:00,70.1,54.7,29.86,WSW,244,0.0,7.0,58,0.00,,---,0.00,VWS V14.01,2013-06-11 01:39:00,
2013-06-10 18:43:00,69.9,54.0,29.86,WSW,238,5.0,8.0,57,0.00,,---,0.00,VWS V14.01,2013-06-11 01:43:00,
2013-06-10 18:45:00,69.9,54.0,29.86,SW,221,2.0,8.0,57,0.00,,---,0.00,VWS V14.01,2013-06-11 01:45:00,
2013-06-10 18:48:00,69.8,53.9,29.86,SSW,194,2.0,10.0,57,0.00,,---,0.00,VWS V14.01,2013-06-11 01:48:00,
2013-06-10 18:53:00,69.5,54.1,29.86,SW,225,2.0,10.0,58,0.00,,---,0.00,VWS V14.01,2013-06-11 01:53:00,
2013-06-10 18:58:00,69.4,54.5,29.86,SW,215,2.0,10.0,59,0.00,,---,0.00,VWS V14.01,2013-06-11 01:58:00,
2013-06-10 19:00:00,69.3,53.9,29.86,SW,234,2.0,10.0,58,0.00,,---,0.00,VWS V14.01,2013-06-11 02:00:00,
2013-06-10 19:03:00,69.2,54.3,29.86,SW,221,2.0,6.0,59,0.00,,---,0.00,VWS V14.01,2013-06-11 02:03:00,
2013-06-10 19:08:00,69.0,54.1,29.86,SW,216,3.0,10.0,59,0.00,,---,0.00,VWS V14.01,2013-06-11 02:08:00,
2013-06-10 19:13:00,68.9,54.0,29.86,SW,229,5.0,10.0,59,0.00,,---,0.00,VWS V14.01,2013-06-11 02:13:00,
2013-06-10 19:15:00,68.8,53.9,29.86,West,268,4.0,10.0,59,0.00,,---,0.00,VWS V14.01,2013-06-11 02:15:00,
2013-06-10 19:18:00,68.7,53.8,29.86,SSW,207,5.0,10.0,59,0.00,,---,0.00,VWS V14.01,2013-06-11 02:18:00,
2013-06-10 19:23:00,68.4,54.0,29.85,SSW,206,7.0,10.0,60,0.00,,---,0.00,VWS V14.01,2013-06-11 02:23:00,
2013-06-10 19:28:00,68.1,54.2,29.86,SSW,204,6.0,10.0,61,0.00,,---,0.00,VWS V14.01,2013-06-11 02:28:00,
2013-06-10 19:30:00,68.0,54.1,29.85,SSW,205,0.0,10.0,61,0.00,,---,0.00,VWS V14.01,2013-06-11 02:30:00,
2013-06-10 19:33:00,67.8,53.9,29.86,SSW,204,5.0,6.0,61,0.00,,---,0.00,VWS V14.01,2013-06-11 02:33:00,
2013-06-10 19:38:00,67.6,53.7,29.86,South,180,7.0,9.0,61,0.00,,---,0.00,VWS V14.01,2013-06-11 02:38:00,
2013-06-10 19:43:00,67.2,53.3,29.86,SSW,202,8.0,12.0,61,0.00,,---,0.00,VWS V14.01,2013-06-11 02:43:00,
2013-06-10 19:45:00,67.1,53.7,29.86,SSW,200,8.0,12.0,62,0.00,,---,0.00,VWS V14.01,2013-06-11 02:45:00,
2013-06-10 19:48:00,66.9,53.0,29.86,SSW,196,7.0,10.0,61,0.00,,---,0.00,VWS V14.01,2013-06-11 02:48:00,
2013-06-10 19:53:00,66.6,53.2,29.86,SSW,193,9.0,10.0,62,0.00,,---,0.00,VWS V14.01,2013-06-11 02:53:00,
2013-06-10 19:58:00,66.3,53.3,29.86,SSW,199,8.0,10.0,63,0.00,,---,0.00,VWS V14.01,2013-06-11 02:58:00,
2013-06-10 20:00:00,66.2,53.7,29.86,SSW,202,6.0,10.0,64,0.00,,---,0.00,VWS V14.01,2013-06-11 03:00:00,
2013-06-10 20:03:00,66.0,53.5,29.86,SSW,202,4.0,7.0,64,0.00,,---,0.00,VWS V14.01,2013-06-11 03:03:00,
2013-06-10 20:08:00,65.8,53.3,29.86,SSW,202,2.0,7.0,64,0.00,,---,0.00,VWS V14.01,2013-06-11 03:08:00,
2013-06-10 20:13:00,65.5,53.4,29.86,SSW,200,3.0,7.0,65,0.00,,---,0.00,VWS V14.01,2013-06-11 03:13:00,
2013-06-10 20:15:00,65.3,53.2,29.86,SSW,202,4.0,7.0,65,0.00,,---,0.00,VWS V14.01,2013-06-11 03:15:00,
2013-06-10 20:18:00,65.2,53.2,29.86,SSW,202,4.0,6.0,65,0.00,,---,0.00,VWS V14.01,2013-06-11 03:18:00,
2013-06-10 20:23:00,64.9,53.3,29.86,SSW,203,0.0,6.0,66,0.00,,---,0.00,VWS V14.01,2013-06-11 03:23:00,
2013-06-10 20:28:00,64.7,53.1,29.86,South,188,0.0,6.0,66,0.00,,---,0.00,VWS V14.01,2013-06-11 03:28:00,
2013-06-10 20:30:00,64.6,53.0,29.86,SSW,206,0.0,6.0,66,0.00,,---,0.00,VWS V14.01,2013-06-11 03:30:00,
2013-06-10 20:33:00,64.5,52.9,29.86,SSW,206,0.0,0.0,66,0.00,,---,0.00,VWS V14.01,2013-06-11 03:33:00,
2013-06-10 20:38:00,64.4,52.8,29.87,SSW,206,0.0,0.0,66,0.00,,---,0.00,VWS V14.01,2013-06-11 03:38:00,
2013-06-10 20:43:00,64.2,53.0,29.86,SSW,206,0.0,0.0,67,0.00,,---,0.00,VWS V14.01,2013-06-11 03:43:00,
2013-06-10 20:45:00,64.1,53.3,29.86,SSW,206,0.0,1.0,68,0.00,,---,0.00,VWS V14.01,2013-06-11 03:45:00,
2013-06-10 20:48:00,64.0,53.2,29.86,SSW,206,2.0,3.0,68,0.00,,---,0.00,VWS V14.01,2013-06-11 03:48:00,
2013-06-10 20:53:00,63.9,53.1,29.87,SW,217,0.0,3.0,68,0.00,,---,0.00,VWS V14.01,2013-06-11 03:53:00,
2013-06-10 20:58:00,63.7,53.0,29.86,SW,236,2.0,4.0,68,0.00,,---,0.00,VWS V14.01,2013-06-11 03:58:00,
2013-06-10 21:00:00,63.7,53.0,29.86,WSW,244,3.0,4.0,68,0.00,,---,0.00,VWS V14.01,2013-06-11 04:00:00,
2013-06-10 21:01:00,63.7,53.0,29.86,WSW,244,4.0,4.0,68,0.00,,---,0.00,VWS V14.01,2013-06-11 04:01:00,
2013-06-10 21:06:00,63.6,52.9,29.86,West,263,2.0,5.0,68,0.00,,---,0.00,VWS V14.01,2013-06-11 04:06:00,
2013-06-10 21:12:00,63.5,52.8,29.86,West,267,3.0,5.0,68,0.00,,---,0.00,VWS V14.01,2013-06-11 04:12:00,
2013-06-10 21:15:00,63.4,52.7,29.86,West,269,3.0,9.0,68,0.00,,---,0.00,VWS V14.01,2013-06-11 04:15:00,
2013-06-10 21:17:00,63.3,52.6,29.86,West,267,0.0,6.0,68,0.00,,---,0.00,VWS V14.01,2013-06-11 04:17:00,
2013-06-10 21:22:00,63.2,52.9,29.86,West,269,1.0,8.0,69,0.00,,---,0.00,VWS V14.01,2013-06-11 04:22:00,
2013-06-10 21:27:00,63.2,52.9,29.86,WSW,250,5.0,8.0,69,0.00,,---,0.00,VWS V14.01,2013-06-11 04:27:00,
2013-06-10 21:30:00,63.1,53.2,29.86,WSW,257,5.0,8.0,70,0.00,,---,0.00,VWS V14.01,2013-06-11 04:30:00,
2013-06-10 21:32:00,63.1,53.2,29.86,WSW,252,2.0,5.0,70,0.00,,---,0.00,VWS V14.01,2013-06-11 04:32:00,
2013-06-10 21:37:00,62.9,53.0,29.86,WSW,250,0.0,6.0,70,0.00,,---,0.00,VWS V14.01,2013-06-11 04:37:00,
2013-06-10 21:42:00,62.7,53.2,29.87,WSW,249,0.0,6.0,71,0.00,,---,0.00,VWS V14.01,2013-06-11 04:42:00,
2013-06-10 21:45:00,62.5,53.0,29.86,WSW,249,0.0,6.0,71,0.00,,---,0.00,VWS V14.01,2013-06-11 04:45:00,
2013-06-10 21:47:00,62.5,53.0,29.87,WSW,249,0.0,0.0,71,0.00,,---,0.00,VWS V14.01,2013-06-11 04:47:00,
2013-06-10 21:52:00,62.3,53.2,29.87,WSW,249,0.0,0.0,72,0.00,,---,0.00,VWS V14.01,2013-06-11 04:52:00,
2013-06-10 21:57:00,62.1,53.0,29.87,WSW,249,0.0,0.0,72,0.00,,---,0.00,VWS V14.01,2013-06-11 04:57:00,
2013-06-10 22:00:00,61.9,52.8,29.87,WSW,249,0.0,0.0,72,0.00,,---,0.00,VWS V14.01,2013-06-11 05:00:00,
2013-06-10 22:02:00,61.9,52.8,29.87,WSW,249,0.0,0.0,72,0.00,,---,0.00,VWS V14.01,2013-06-11 05:02:00,
2013-06-10 22:07:00,61.7,52.6,29.87,WSW,249,0.0,0.0,72,0.00,,---,0.00,VWS V14.01,2013-06-11 05:07:00,
2013-06-10 22:12:00,61.4,52.7,29.88,WSW,249,0.0,0.0,73,0.00,,---,0.00,VWS V14.01,2013-06-11 05:12:00,
2013-06-10 22:15:00,61.2,52.5,29.88,WSW,249,0.0,0.0,73,0.00,,---,0.00,VWS V14.01,2013-06-11 05:15:00,
2013-06-10 22:17:00,61.1,52.4,29.88,WSW,249,0.0,0.0,73,0.00,,---,0.00,VWS V14.01,2013-06-11 05:17:00,
2013-06-10 22:22:00,60.9,52.6,29.88,WSW,249,0.0,0.0,74,0.00,,---,0.00,VWS V14.01,2013-06-11 05:22:00,
2013-06-10 22:27:00,60.5,52.5,29.88,WSW,249,0.0,0.0,75,0.00,,---,0.00,VWS V14.01,2013-06-11 05:27:00,
2013-06-10 22:30:00,60.3,52.3,29.88,WSW,249,0.0,0.0,75,0.00,,---,0.00,VWS V14.01,2013-06-11 05:30:00,
2013-06-10 22:32:00,60.2,52.3,29.88,WSW,249,0.0,0.0,75,0.00,,---,0.00,VWS V14.01,2013-06-11 05:32:00,
2013-06-10 22:37:00,59.9,52.3,29.88,WSW,249,0.0,0.0,76,0.00,,---,0.00,VWS V14.01,2013-06-11 05:37:00,
2013-06-10 22:42:00,59.7,52.5,29.88,WSW,249,0.0,0.0,77,0.00,,---,0.00,VWS V14.01,2013-06-11 05:42:00,
2013-06-10 22:45:00,59.6,52.4,29.88,WSW,249,0.0,0.0,77,0.00,,---,0.00,VWS V14.01,2013-06-11 05:45:00,
2013-06-10 22:47:00,59.5,52.3,29.88,WSW,249,0.0,0.0,77,0.00,,---,0.00,VWS V14.01,2013-06-11 05:47:00,
2013-06-10 22:52:00,59.3,52.5,29.88,WSW,249,0.0,0.0,78,0.00,,---,0.00,VWS V14.01,2013-06-11 05:52:00,
2013-06-10 23:00:00,59.1,52.6,29.88,North,0,0.0,0.0,79,0.00,,---,0.00,VWS V14.01,2013-06-11 06:00:00,
2013-06-10 23:15:00,58.8,52.7,29.88,North,0,0.0,0.0,80,0.00,,---,0.00,VWS V14.01,2013-06-11 06:15:00,
2013-06-10 23:30:00,58.5,52.4,29.87,North,0,0.0,0.0,80,0.00,,---,0.00,VWS V14.01,2013-06-11 06:30:00,
2013-06-10 23:45:00,58.2,52.4,29.87,North,0,0.0,0.0,81,0.00,,---,0.00,VWS V14.01,2013-06-11 06:45:00,